Azalea Ace — A8ZJ6 — position and weather

sailwx.info

Track history (hours):
 
Tides and Currents Weather Stations Pressure Air Temp Water Temp Dewpoint Dewpoint Depression Visibility Wind Speed Wind Dir Waves Ship Positions

Azalea Ace

Last reported at 2017-Aug-19 11:34 UTC. Time now 2017-Aug-23 19:41 UTC.
Position N 33°53' E 134°57'.

Length 180 m; draft 8.5 m.

Type: Cargo ship. MMSI: 636015228.

Date/timePositionNaut miles runAvg speedWind from/ knotsBaromVisibWave heightAir tempDewpointWater temp
2017-Aug-19 11:34N 33°53' E 134°57'215.8
2017-Aug-19 11:24N 33°55' E 134°57'615.6
2017-Aug-19 11:00N 34°02' E 134°58'815.3
2017-Aug-19 10:30N 34°09' E 134°58'611.8
2017-Aug-19 10:01N 34°15' E 134°58'713.5
2017-Aug-19 09:29N 34°22' E 135°00'815.9
2017-Aug-19 09:00N 34°29' E 135°04'612.8
2017-Aug-19 08:31N 34°35' E 135°07'5 8.9
2017-Aug-19 08:00N 34°36' E 135°02'510.9
2017-Aug-19 07:30N 34°36' E 134°56'815.9
2017-Aug-19 07:00N 34°33' E 134°47'5 9.6
2017-Aug-19 06:27N 34°38' E 134°46'6 0.9
2017-Aug-18 23:58N 34°43' E 134°51'2 5.5
2017-Aug-18 23:30N 34°41' E 134°49'3 6.1
2017-Aug-18 23:00N 34°38' E 134°50'3 6.6
2017-Aug-18 22:30N 34°37' E 134°54'5 9.6
2017-Aug-18 21:58N 34°38' E 135°00'511.0
2017-Aug-18 21:30N 34°35' E 135°05'4 7.4
2017-Aug-18 21:00N 34°31' E 135°06'815.8
2017-Aug-18 20:30N 34°24' E 135°02'815.7
2017-Aug-18 20:00N 34°16' E 134°59'713.6
2017-Aug-18 19:31N 34°09' E 134°60'611.6
2017-Aug-18 19:01N 34°04' E 134°59'510.4
2017-Aug-18 18:30N 33°59' E 134°58'815.7
2017-Aug-18 18:00N 33°51' E 134°58'  
Track history (hours):
 
Tides and Currents Weather Stations Pressure Air Temp Water Temp Dewpoint Dewpoint Depression Visibility Wind Speed Wind Dir Waves Ship Positions

Azalea Ace

Last reported at 2017-Aug-19 11:34 UTC. Time now 2017-Aug-23 19:41 UTC.
Position N 33°53' E 134°57'.

Length 180 m; draft 8.5 m.

Type: Cargo ship. MMSI: 636015228.

Date/timePositionNaut miles runAvg speedWind from/ knotsBaromVisibWave heightAir tempDewpointWater temp
2017-Aug-19 11:34N 33°53' E 134°57'215.8
2017-Aug-19 11:24N 33°55' E 134°57'615.6
2017-Aug-19 11:00N 34°02' E 134°58'815.3
2017-Aug-19 10:30N 34°09' E 134°58'611.8
2017-Aug-19 10:01N 34°15' E 134°58'713.5
2017-Aug-19 09:29N 34°22' E 135°00'815.9
2017-Aug-19 09:00N 34°29' E 135°04'612.8
2017-Aug-19 08:31N 34°35' E 135°07'5 8.9
2017-Aug-19 08:00N 34°36' E 135°02'510.9
2017-Aug-19 07:30N 34°36' E 134°56'815.9
2017-Aug-19 07:00N 34°33' E 134°47'5 9.6
2017-Aug-19 06:27N 34°38' E 134°46'6 0.9
2017-Aug-18 23:58N 34°43' E 134°51'2 5.5
2017-Aug-18 23:30N 34°41' E 134°49'3 6.1
2017-Aug-18 23:00N 34°38' E 134°50'3 6.6
2017-Aug-18 22:30N 34°37' E 134°54'5 9.6
2017-Aug-18 21:58N 34°38' E 135°00'511.0
2017-Aug-18 21:30N 34°35' E 135°05'4 7.4
2017-Aug-18 21:00N 34°31' E 135°06'815.8
2017-Aug-18 20:30N 34°24' E 135°02'815.7
2017-Aug-18 20:00N 34°16' E 134°59'713.6
2017-Aug-18 19:31N 34°09' E 134°60'611.6
2017-Aug-18 19:01N 34°04' E 134°59'510.4
2017-Aug-18 18:30N 33°59' E 134°58'815.7
2017-Aug-18 18:00N 33°51' E 134°58'  

Dump ship's entire track history